Time;durP1;ratioP1;P1;durP2;ratioP2;P2;SDS_P1;SDS_P2;PMS_P1;PMS_P2;Temp;Humidity;BMP_temperature;BMP_pressure;BME280_temperature;BME280_humidity;BME280_pressure;Samples;Min_cycle;Max_cycle;Signal;HPM_P1;HPM_P2
2022/11/01 00:01:40;;;;;;;15.23;5.25;;;;;;;14.80;100.00;100663.66;5031508;28;20026;-72
2022/11/01 00:04:05;;;;;;;14.90;5.43;;;;;;;14.85;100.00;100668.31;5024920;28;20018;-72
2022/11/01 00:06:30;;;;;;;15.20;5.70;;;;;;;14.89;100.00;100656.66;5032608;28;20449;-71
2022/11/01 00:08:56;;;;;;;15.32;5.68;;;;;;;14.95;100.00;100653.97;5030789;28;20051;-72
2022/11/01 00:11:21;;;;;;;12.88;5.55;;;;;;;14.98;100.00;100656.19;5052990;28;20050;-72
2022/11/01 00:13:48;;;;;;;13.82;4.88;;;;;;;15.05;100.00;100646.72;5035023;28;20044;-71
2022/11/01 00:16:15;;;;;;;12.73;5.10;;;;;;;15.12;100.00;100654.66;5031839;28;20411;-70
2022/11/01 00:18:41;;;;;;;12.85;4.93;;;;;;;15.13;100.00;100655.50;5032204;28;20025;-70
2022/11/01 00:21:06;;;;;;;14.63;4.60;;;;;;;15.14;100.00;100649.78;5013192;28;20435;-72
2022/11/01 00:23:31;;;;;;;16.00;5.80;;;;;;;15.20;100.00;100647.91;5024703;28;20029;-71
2022/11/01 00:26:00;;;;;;;15.27;5.45;;;;;;;15.20;100.00;100653.34;5032481;28;20489;-74
2022/11/01 00:28:27;;;;;;;13.43;5.18;;;;;;;15.26;100.00;100648.75;5032583;28;20080;-71
2022/11/01 00:30:53;;;;;;;12.30;4.38;;;;;;;15.30;100.00;100639.81;5027841;28;20433;-71
2022/11/01 00:33:18;;;;;;;11.90;4.53;;;;;;;15.33;100.00;100643.91;5028118;28;20044;-70
2022/11/01 00:35:45;;;;;;;12.38;4.70;;;;;;;15.36;100.00;100644.22;5027979;28;20025;-70
2022/11/01 00:38:11;;;;;;;11.35;4.63;;;;;;;15.36;100.00;100641.47;5031120;28;20083;-72
2022/11/01 00:40:36;;;;;;;10.00;4.60;;;;;;;15.39;100.00;100646.41;5026728;28;20029;-70
2022/11/01 00:43:01;;;;;;;12.48;4.78;;;;;;;15.41;100.00;100641.53;5031817;28;20056;-71
2022/11/01 00:45:27;;;;;;;11.70;4.97;;;;;;;15.45;100.00;100647.28;5032742;28;20028;-73
2022/11/01 00:47:52;;;;;;;8.52;4.00;;;;;;;15.46;100.00;100638.00;5019693;28;20034;-73
2022/11/01 00:50:17;;;;;;;9.23;4.15;;;;;;;15.52;100.00;100644.31;5012869;28;20052;-70
2022/11/01 00:52:43;;;;;;;12.48;4.75;;;;;;;15.53;100.00;100635.03;5015543;28;20036;-70
2022/11/01 00:55:08;;;;;;;11.82;4.63;;;;;;;15.56;100.00;100629.06;5017084;28;20029;-73
2022/11/01 00:57:33;;;;;;;13.30;4.97;;;;;;;15.54;100.00;100623.88;5029093;28;20064;-72
2022/11/01 00:59:59;;;;;;;12.73;4.35;;;;;;;15.55;100.00;100625.53;5032774;28;20397;-72
2022/11/01 01:02:24;;;;;;;9.82;4.60;;;;;;;15.55;100.00;100621.97;5026222;28;20022;-70
2022/11/01 01:04:49;;;;;;;11.85;4.18;;;;;;;15.52;100.00;100617.03;5031382;28;20021;-70
2022/11/01 01:07:15;;;;;;;13.63;4.38;;;;;;;15.53;100.00;100626.88;5030821;28;20068;-74
2022/11/01 01:09:40;;;;;;;11.80;4.25;;;;;;;15.53;100.00;100624.94;5018420;28;20026;-73
2022/11/01 01:12:06;;;;;;;14.15;4.65;;;;;;;15.55;100.00;100608.31;5025103;28;20356;-71
2022/11/01 01:14:31;;;;;;;12.98;4.30;;;;;;;15.55;100.00;100616.50;5031820;28;20025;-71
2022/11/01 01:16:56;;;;;;;15.02;4.60;;;;;;;15.60;100.00;100608.38;5031805;28;20500;-72
2022/11/01 01:19:22;;;;;;;14.98;4.00;;;;;;;15.62;100.00;100616.28;5032593;28;20460;-73
2022/11/01 01:21:47;;;;;;;11.15;4.63;;;;;;;15.61;100.00;100604.56;5031611;28;20033;-72
2022/11/01 01:24:12;;;;;;;14.50;4.72;;;;;;;15.63;100.00;100623.38;5030981;28;20029;-73
2022/11/01 01:26:38;;;;;;;10.00;4.65;;;;;;;15.67;100.00;100619.88;5032408;28;20029;-71
2022/11/01 01:29:03;;;;;;;10.50;4.15;;;;;;;15.71;100.00;100614.69;5034949;28;20124;-70
2022/11/01 01:31:28;;;;;;;10.90;4.18;;;;;;;15.73;100.00;100615.25;5034347;28;20026;-69
2022/11/01 01:33:56;;;;;;;14.77;4.90;;;;;;;15.72;100.00;100621.81;5022536;28;20040;-73
2022/11/01 01:36:21;;;;;;;11.60;4.70;;;;;;;15.71;100.00;100626.41;5017030;28;20033;-73
2022/11/01 01:38:50;;;;;;;10.48;4.20;;;;;;;15.74;100.00;100616.88;5021339;28;20026;-73
2022/11/01 01:43:59;;;;;;;12.88;4.45;;;;;;;15.71;100.00;100611.97;5036172;28;20039;-73
2022/11/01 01:46:24;;;;;;;12.75;4.53;;;;;;;15.77;100.00;100611.75;5036039;28;20029;-70
2022/11/01 01:48:53;;;;;;;13.70;4.85;;;;;;;15.74;100.00;100609.50;5035856;28;20360;-73
2022/11/01 01:51:23;;;;;;;12.90;4.53;;;;;;;15.77;100.00;100613.63;5034530;28;20029;-73
2022/11/01 01:53:52;;;;;;;16.00;4.70;;;;;;;15.77;100.00;100609.00;5035190;28;20030;-72
2022/11/01 01:56:28;;;;;;;12.20;4.68;;;;;;;15.77;100.00;100600.81;5027327;28;20057;-72
2022/11/01 01:59:07;;;;;;;9.95;4.75;;;;;;;15.79;100.00;100605.22;5031107;28;20447;-73
2022/11/01 02:01:35;;;;;;;10.93;4.28;;;;;;;15.84;100.00;100608.78;5033387;28;20075;-69
2022/11/01 02:04:10;;;;;;;14.38;4.50;;;;;;;15.89;100.00;100613.44;5021491;28;20115;-71
2022/11/01 02:06:38;;;;;;;14.40;4.45;;;;;;;15.90;100.00;100609.63;5032946;28;20025;-73
2022/11/01 02:09:06;;;;;;;9.85;4.20;;;;;;;15.87;100.00;100607.44;5027159;28;20079;-70
2022/11/01 02:11:31;;;;;;;11.93;4.30;;;;;;;15.87;100.00;100621.91;5015396;28;20030;-74
2022/11/01 02:13:57;;;;;;;13.13;4.22;;;;;;;15.89;100.00;100619.72;5019234;28;20083;-72
2022/11/01 02:16:22;;;;;;;9.27;4.07;;;;;;;15.91;100.00;100608.53;5034095;28;20025;-71
2022/11/01 02:18:57;;;;;;;10.90;4.28;;;;;;;15.92;100.00;100612.91;5034871;28;20026;-70
2022/11/01 02:21:28;;;;;;;11.88;4.60;;;;;;;15.94;100.00;100614.28;5023525;28;20384;-73
2022/11/01 02:24:08;;;;;;;8.82;4.25;;;;;;;15.93;100.00;100617.28;5035319;28;20092;-71
2022/11/01 02:27:01;;;;;;;14.27;4.70;;;;;;;15.92;100.00;100611.00;5034069;28;20029;-72
2022/11/01 02:29:54;;;;;;;11.45;4.18;;;;;;;15.90;100.00;100613.19;5035246;28;20037;-71
2022/11/01 02:32:50;;;;;;;10.98;4.28;;;;;;;15.87;100.00;100612.91;5033010;28;20487;-73
2022/11/01 02:35:53;;;;;;;10.23;4.03;;;;;;;15.86;100.00;100617.50;5025936;28;20033;-71
2022/11/01 02:38:28;;;;;;;11.65;4.20;;;;;;;15.86;100.00;100617.50;5031571;28;20039;-71
2022/11/01 02:41:02;;;;;;;12.23;4.05;;;;;;;15.85;100.00;100626.81;5014236;28;20073;-71
2022/11/01 02:43:44;;;;;;;10.57;4.30;;;;;;;15.85;100.00;100629.53;5015125;28;20029;-71
2022/11/01 02:48:56;;;;;;;10.20;4.13;;;;;;;15.86;100.00;100644.81;5021315;28;20048;-70
2022/11/01 02:51:23;;;;;;;8.25;3.83;;;;;;;15.83;100.00;100639.88;5033468;28;20384;-69
2022/11/01 02:53:49;;;;;;;9.00;4.13;;;;;;;15.82;100.00;100637.41;5034250;28;20029;-69
2022/11/01 02:56:16;;;;;;;12.23;4.82;;;;;;;15.80;100.00;100639.59;5026975;28;20473;-70
2022/11/01 02:58:43;;;;;;;10.77;4.32;;;;;;;15.77;100.00;100641.75;5034585;28;20036;-69
2022/11/01 03:01:14;;;;;;;10.32;4.20;;;;;;;15.77;100.00;100649.09;5024758;28;20392;-72
2022/11/01 03:03:43;;;;;;;12.35;4.72;;;;;;;15.76;100.00;100651.00;5015072;28;20033;-72
2022/11/01 03:06:17;;;;;;;12.68;4.63;;;;;;;15.76;100.00;100651.00;5013660;28;20357;-70
2022/11/01 03:08:47;;;;;;;12.27;4.43;;;;;;;15.74;100.00;100650.44;5020086;28;20025;-73
2022/11/01 03:11:15;;;;;;;11.95;4.30;;;;;;;15.73;100.00;100664.34;5033638;28;20075;-72
2022/11/01 03:14:11;;;;;;;11.77;4.22;;;;;;;15.71;100.00;100656.41;5034170;28;20026;-72
2022/11/01 03:16:59;;;;;;;9.70;3.72;;;;;;;15.73;100.00;100673.38;5032970;28;20029;-69
2022/11/01 03:19:47;;;;;;;14.00;3.80;;;;;;;15.84;100.00;100668.81;5034315;28;20033;-70
2022/11/01 03:22:27;;;;;;;9.15;4.03;;;;;;;15.79;100.00;100676.13;5029130;28;20026;-72
2022/11/01 03:25:01;;;;;;;9.32;3.67;;;;;;;15.80;100.00;100683.25;5030296;28;20049;-72
2022/11/01 03:27:34;;;;;;;9.43;3.28;;;;;;;15.80;100.00;100694.16;5032674;28;20104;-70
2022/11/01 03:30:13;;;;;;;7.78;2.88;;;;;;;15.77;100.00;100693.59;5033741;28;20045;-69
2022/11/01 03:32:46;;;;;;;6.90;3.13;;;;;;;15.77;100.00;100696.31;5030586;28;20510;-72
2022/11/01 03:35:17;;;;;;;8.77;2.45;;;;;;;15.75;100.00;100698.47;5031157;28;20068;-70
2022/11/01 03:37:45;;;;;;;8.88;2.83;;;;;;;15.72;100.00;100712.63;5019419;28;20033;-70
2022/11/01 03:40:13;;;;;;;4.75;2.30;;;;;;;15.71;100.00;100721.88;5023002;28;20026;-72
2022/11/01 03:42:42;;;;;;;5.75;2.20;;;;;;;15.64;98.45;100723.22;5029902;28;20111;-69
2022/11/01 03:45:11;;;;;;;9.20;1.98;;;;;;;15.66;90.50;100712.88;5028775;28;20029;-69
2022/11/01 03:47:36;;;;;;;7.43;1.83;;;;;;;15.62;84.08;100726.19;5025367;28;20026;-71
2022/11/01 03:50:23;;;;;;;4.57;1.20;;;;;;;15.60;81.07;100722.91;5018428;28;20076;-69
2022/11/01 03:52:48;;;;;;;6.50;1.40;;;;;;;15.53;77.73;100744.13;5013674;28;20037;-72
2022/11/01 03:55:18;;;;;;;3.75;1.15;;;;;;;15.49;74.65;100743.00;5027289;28;20075;-72
2022/11/01 03:57:52;;;;;;;3.47;1.20;;;;;;;15.51;74.04;100752.56;5026977;28;20029;-72
2022/11/01 04:00:22;;;;;;;3.08;1.10;;;;;;;15.40;74.91;100751.66;5032786;28;20017;-72
2022/11/01 04:02:48;;;;;;;6.32;1.23;;;;;;;15.41;72.22;100758.78;5030144;28;20036;-70
2022/11/01 04:05:14;;;;;;;3.97;1.30;;;;;;;15.30;73.35;100773.38;5018268;28;20480;-70
2022/11/01 04:07:40;;;;;;;1.50;1.00;;;;;;;15.26;72.02;100787.78;5029066;28;20033;-71
2022/11/01 04:10:06;;;;;;;5.20;1.23;;;;;;;15.23;71.68;100794.56;5024968;28;20026;-73
2022/11/01 04:12:32;;;;;;;1.17;0.90;;;;;;;15.17;70.80;100790.16;5029052;28;20424;-71
2022/11/01 04:20:34;;;;;;;2.88;0.82;;;;;;;15.01;71.17;100811.81;5025069;28;20049;-72
2022/11/01 04:23:01;;;;;;;2.92;1.00;;;;;;;14.94;71.83;100807.63;5031782;28;20034;-70
2022/11/01 04:25:27;;;;;;;3.63;1.00;;;;;;;14.89;72.91;100822.03;5030112;28;20021;-71
2022/11/01 04:27:55;;;;;;;4.20;1.38;;;;;;;14.79;73.77;100821.91;5032238;28;20029;-72
2022/11/01 04:30:21;;;;;;;3.83;0.90;;;;;;;14.78;72.96;100826.53;5031158;28;20364;-70
2022/11/01 04:32:47;;;;;;;4.97;1.05;;;;;;;14.69;72.88;100828.06;5029104;28;20018;-71
2022/11/01 04:35:12;;;;;;;2.92;1.05;;;;;;;14.64;73.63;100836.97;5030588;28;20036;-69
2022/11/01 04:37:38;;;;;;;3.35;0.98;;;;;;;14.59;73.72;100844.22;5031437;28;20029;-72
2022/11/01 04:40:07;;;;;;;1.58;0.80;;;;;;;14.57;73.99;100857.25;5028240;28;20030;-69
2022/11/01 04:42:33;;;;;;;3.78;1.40;;;;;;;14.49;73.91;100853.91;5028552;28;20030;-71
2022/11/01 04:44:59;;;;;;;5.20;1.00;;;;;;;14.46;73.84;100862.56;5030541;28;20025;-70
2022/11/01 04:47:25;;;;;;;7.88;1.02;;;;;;;14.48;72.42;100865.06;5016397;28;20056;-70
2022/11/01 04:49:50;;;;;;;2.88;1.15;;;;;;;14.41;72.82;100869.84;5029256;28;20032;-69
2022/11/01 04:52:15;;;;;;;6.35;0.93;;;;;;;14.38;73.77;100890.22;5027183;28;20026;-69
2022/11/01 04:54:40;;;;;;;4.57;1.25;;;;;;;14.35;73.43;100894.25;5032260;28;20037;-73
2022/11/01 04:57:06;;;;;;;4.78;1.25;;;;;;;14.30;73.84;100894.19;5031391;28;20377;-70
2022/11/01 04:59:31;;;;;;;2.97;1.17;;;;;;;14.25;73.92;100888.69;5031686;28;20456;-70
2022/11/01 05:01:57;;;;;;;5.78;1.00;;;;;;;14.24;72.84;100913.41;5029744;28;20037;-72
2022/11/01 05:04:22;;;;;;;7.60;1.30;;;;;;;14.24;72.75;100924.31;5017027;28;20034;-68
2022/11/01 05:06:47;;;;;;;7.18;1.20;;;;;;;14.18;73.10;100920.66;5019974;28;20044;-71
2022/11/01 05:09:12;;;;;;;5.35;1.05;;;;;;;14.11;73.15;100925.44;5031154;28;20025;-69
2022/11/01 05:11:38;;;;;;;4.32;0.90;;;;;;;14.07;73.60;100929.72;5032372;28;20025;-71
2022/11/01 05:14:03;;;;;;;4.78;1.35;;;;;;;14.00;73.95;100919.00;5031674;28;20026;-72
2022/11/01 05:16:29;;;;;;;5.05;1.15;;;;;;;13.98;74.43;100938.31;5028684;28;20444;-72
2022/11/01 05:18:54;;;;;;;6.13;1.20;;;;;;;13.92;74.84;100944.72;5030323;28;20106;-72
2022/11/01 05:21:19;;;;;;;6.63;1.15;;;;;;;13.90;74.49;100943.31;5032545;28;20025;-68
2022/11/01 05:23:48;;;;;;;5.50;1.30;;;;;;;13.88;74.83;100949.00;5023707;28;20508;-71
2022/11/01 05:26:13;;;;;;;6.05;1.15;;;;;;;13.82;75.64;100949.97;5014210;28;20398;-70
2022/11/01 05:28:38;;;;;;;4.05;1.10;;;;;;;13.79;76.23;100958.63;5030827;28;20037;-73
2022/11/01 05:31:03;;;;;;;7.70;1.20;;;;;;;13.77;74.88;100948.00;5032657;28;20029;-74
2022/11/01 05:33:29;;;;;;;5.43;0.90;;;;;;;13.77;75.34;100958.88;5025846;28;20457;-73
2022/11/01 05:35:54;;;;;;;5.60;1.45;;;;;;;13.76;75.19;100956.41;5027131;28;20040;-71
2022/11/01 05:38:20;;;;;;;6.50;1.40;;;;;;;13.75;75.67;100957.47;5024308;28;20025;-70
2022/11/01 05:40:45;;;;;;;3.95;1.05;;;;;;;13.69;76.32;100951.09;5020373;28;20150;-70
2022/11/01 05:43:10;;;;;;;4.85;1.42;;;;;;;13.62;77.43;100964.84;5019919;28;20037;-72
2022/11/01 05:45:36;;;;;;;3.55;1.08;;;;;;;13.61;77.62;100974.06;5026342;28;20033;-70
2022/11/01 05:48:03;;;;;;;9.32;1.60;;;;;;;13.58;77.81;100969.09;5028581;28;20037;-69
2022/11/01 05:50:28;;;;;;;5.60;1.38;;;;;;;13.57;76.92;100975.63;5019714;28;20483;-71
2022/11/01 05:52:54;;;;;;;4.70;1.20;;;;;;;13.52;75.76;100972.78;5026787;28;20025;-73
2022/11/01 05:55:19;;;;;;;5.95;1.35;;;;;;;13.57;71.38;100988.38;5029665;28;21569;-71
2022/11/01 05:57:44;;;;;;;7.00;2.03;;;;;;;13.59;70.40;100984.38;5030736;28;20450;-74
2022/11/01 06:00:10;;;;;;;8.25;1.83;;;;;;;13.57;69.13;100985.66;5031189;28;20037;-71
2022/11/01 06:02:36;;;;;;;9.35;1.63;;;;;;;13.46;69.36;100979.19;5028686;28;20021;-72
2022/11/01 06:05:01;;;;;;;10.98;2.10;;;;;;;13.43;69.07;100980.50;5032215;28;20128;-69
2022/11/01 06:07:26;;;;;;;10.63;1.70;;;;;;;13.40;68.98;100988.31;5030195;28;20025;-74
2022/11/01 06:09:52;;;;;;;7.88;1.42;;;;;;;13.36;69.37;101001.56;5031637;28;20025;-72
2022/11/01 06:12:17;;;;;;;4.95;1.58;;;;;;;13.34;68.95;100997.44;5028557;28;20440;-71
2022/11/01 06:14:42;;;;;;;3.95;1.50;;;;;;;13.32;69.57;101005.81;5030739;28;20026;-70
2022/11/01 06:17:11;;;;;;;4.82;1.60;;;;;;;13.33;70.02;101028.34;5031713;28;20116;-71
2022/11/01 06:19:37;;;;;;;7.18;1.80;;;;;;;13.25;71.03;101027.66;5031850;28;20028;-71
2022/11/01 06:22:02;;;;;;;7.95;1.90;;;;;;;13.19;72.64;101019.66;5035855;28;20029;-72
2022/11/01 06:24:28;;;;;;;6.70;1.50;;;;;;;13.19;72.72;101025.88;5017532;28;20026;-70
2022/11/01 06:26:54;;;;;;;6.75;1.75;;;;;;;13.14;73.64;101033.94;5028848;28;20051;-71
2022/11/01 06:29:19;;;;;;;7.20;1.40;;;;;;;13.23;73.90;101029.78;5034213;28;20037;-71
2022/11/01 06:31:44;;;;;;;7.72;1.70;;;;;;;13.12;75.03;101028.75;5033907;28;20059;-72
2022/11/01 06:34:10;;;;;;;5.18;1.33;;;;;;;13.11;75.72;101037.94;5029260;28;20034;-71
2022/11/01 06:36:35;;;;;;;5.97;1.35;;;;;;;13.12;76.16;101046.94;5022552;28;20112;-70
2022/11/01 06:39:00;;;;;;;7.53;1.70;;;;;;;13.11;75.73;101053.44;5028080;28;20038;-73
2022/11/01 06:41:25;;;;;;;6.68;1.67;;;;;;;13.09;76.50;101055.56;5026478;28;20030;-73
2022/11/01 06:43:51;;;;;;;7.07;1.60;;;;;;;13.04;77.13;101061.69;5023326;28;20428;-69
2022/11/01 06:46:16;;;;;;;9.38;1.50;;;;;;;13.01;77.00;101059.44;5031753;28;20056;-73
2022/11/01 06:48:41;;;;;;;6.65;1.70;;;;;;;13.03;76.54;101073.63;5032840;28;20044;-73
2022/11/01 06:51:07;;;;;;;8.57;1.90;;;;;;;12.98;77.29;101064.53;5034266;28;20021;-70
2022/11/01 06:53:32;;;;;;;10.73;1.98;;;;;;;12.95;77.72;101071.25;5032945;28;20061;-71
2022/11/01 06:56:01;;;;;;;9.40;1.85;;;;;;;12.89;78.74;101073.06;5033115;28;21311;-71
2022/11/01 06:58:27;;;;;;;6.95;2.38;;;;;;;12.91;77.77;101076.34;5032665;28;20373;-73
2022/11/01 07:00:52;;;;;;;6.28;1.60;;;;;;;12.91;78.60;101076.34;5031199;28;20025;-72
2022/11/01 07:03:17;;;;;;;7.45;1.63;;;;;;;12.86;78.69;101067.25;5033192;28;20033;-70
2022/11/01 07:05:43;;;;;;;12.95;2.20;;;;;;;12.84;79.08;101077.53;5034547;28;20022;-70
2022/11/01 07:08:11;;;;;;;7.55;2.25;;;;;;;12.83;79.17;101089.44;5032753;28;20435;-70
2022/11/01 07:10:40;;;;;;;9.73;1.83;;;;;;;12.81;79.41;101094.28;5034279;28;20017;-70
2022/11/01 07:13:06;;;;;;;7.40;1.70;;;;;;;12.77;80.13;101104.78;5031904;28;20033;-70
2022/11/01 07:15:32;;;;;;;13.35;2.38;;;;;;;12.77;79.95;101113.75;5023414;28;20041;-75
2022/11/01 07:17:59;;;;;;;8.50;1.92;;;;;;;12.74;80.30;101113.38;5015022;28;20030;-73
2022/11/01 07:20:26;;;;;;;10.27;1.70;;;;;;;12.73;79.89;101120.72;5016556;28;20018;-72
2022/11/01 07:23:01;;;;;;;11.82;2.10;;;;;;;12.72;79.59;101129.91;5016301;28;20041;-73
2022/11/01 07:25:28;;;;;;;16.52;2.60;;;;;;;12.73;78.57;101133.47;5031676;28;20021;-72
2022/11/01 07:27:56;;;;;;;11.30;2.13;;;;;;;12.73;78.62;101138.91;5030431;28;20036;-73
2022/11/01 07:30:22;;;;;;;26.60;2.45;;;;;;;12.68;78.11;101142.31;5033602;28;20419;-78
2022/11/01 07:32:48;;;;;;;8.48;1.88;;;;;;;12.68;78.73;101141.47;5031526;28;20162;-73
2022/11/01 07:35:13;;;;;;;9.75;2.00;;;;;;;12.69;78.18;101149.38;5033128;28;20029;-71
2022/11/01 07:37:39;;;;;;;9.73;2.50;;;;;;;12.70;77.78;101144.81;5021589;28;20486;-74
2022/11/01 07:40:05;;;;;;;13.15;2.50;;;;;;;12.69;77.60;101154.00;5034183;28;20029;-75
2022/11/01 07:42:30;;;;;;;10.50;2.17;;;;;;;12.68;77.35;101145.03;5033426;28;20030;-72
2022/11/01 07:44:56;;;;;;;11.38;2.50;;;;;;;12.66;77.61;101149.03;5030277;28;20026;-70
2022/11/01 07:47:21;;;;;;;14.38;2.60;;;;;;;12.65;77.57;101153.66;5033704;28;20075;-71
2022/11/01 07:49:46;;;;;;;12.18;2.28;;;;;;;12.70;75.55;101158.38;5033920;28;20041;-69
2022/11/01 07:52:13;;;;;;;10.02;2.30;;;;;;;12.64;77.34;101167.44;5039446;28;20017;-73
2022/11/01 07:54:38;;;;;;;14.52;2.75;;;;;;;12.67;76.38;101175.94;5032315;28;20366;-69
2022/11/01 07:57:04;;;;;;;13.65;2.53;;;;;;;12.65;76.92;101158.22;5029069;28;20071;-69
2022/11/01 07:59:30;;;;;;;14.20;2.65;;;;;;;12.66;75.75;101168.84;5022604;28;20373;-80
2022/11/01 08:01:55;;;;;;;14.93;2.90;;;;;;;12.67;75.14;101172.41;5009923;28;20045;-71
2022/11/01 08:04:20;;;;;;;16.65;2.83;;;;;;;12.66;75.49;101168.03;5013631;28;20199;-70
2022/11/01 08:06:45;;;;;;;14.07;2.75;;;;;;;12.69;75.28;101189.28;5013502;28;20468;-73
2022/11/01 08:09:11;;;;;;;14.55;2.60;;;;;;;12.68;76.09;101185.75;5026493;28;20025;-75
2022/11/01 08:11:36;;;;;;;13.32;2.67;;;;;;;12.70;75.46;101196.41;5033297;28;20106;-74
2022/11/01 08:14:01;;;;;;;11.73;2.38;;;;;;;12.69;75.62;101190.13;5033565;28;20059;-73
2022/11/01 08:16:27;;;;;;;11.52;2.83;;;;;;;12.69;75.32;101189.28;5033208;28;20021;-71
2022/11/01 08:18:52;;;;;;;12.63;2.90;;;;;;;12.70;75.69;101199.09;5032504;28;20515;-71
2022/11/01 08:21:17;;;;;;;14.40;3.00;;;;;;;12.75;75.22;101205.47;5033654;28;20476;-73
2022/11/01 08:23:44;;;;;;;12.15;2.97;;;;;;;12.74;75.19;101198.41;5033127;28;20023;-74
2022/11/01 08:26:10;;;;;;;13.57;2.53;;;;;;;12.76;74.96;101201.72;5031703;28;20080;-73
2022/11/01 08:28:35;;;;;;;13.93;2.50;;;;;;;12.78;74.20;101206.91;5028683;28;20041;-73
2022/11/01 08:31:05;;;;;;;12.93;2.70;;;;;;;12.74;76.69;101213.84;5030644;28;20033;-71
2022/11/01 08:33:31;;;;;;;13.27;2.58;;;;;;;12.76;74.98;101215.28;5032887;28;20395;-73
2022/11/01 08:35:56;;;;;;;16.35;3.30;;;;;;;12.79;74.29;101214.00;5031441;28;20058;-72
2022/11/01 08:38:21;;;;;;;14.20;2.90;;;;;;;12.81;74.13;101211.88;5032030;28;20025;-73
2022/11/01 08:40:47;;;;;;;14.98;2.83;;;;;;;12.85;73.24;101207.66;5032879;28;20032;-71
2022/11/01 08:43:12;;;;;;;15.88;2.95;;;;;;;12.84;74.28;101222.28;5031647;28;20354;-74
2022/11/01 08:45:38;;;;;;;13.10;3.13;;;;;;;12.90;74.22;101209.66;5032729;28;20032;-73
2022/11/01 08:48:06;;;;;;;14.27;2.95;;;;;;;12.96;74.98;101227.75;5032139;28;20029;-77
2022/11/01 08:50:33;;;;;;;14.75;2.78;;;;;;;12.99;74.10;101219.16;5032810;28;20026;-72
2022/11/01 08:53:12;;;;;;;17.60;3.55;;;;;;;13.02;73.31;101228.72;5032538;28;20041;-73
2022/11/01 08:55:38;;;;;;;11.13;2.63;;;;;;;13.03;74.45;101222.22;5031127;28;20033;-72
2022/11/01 08:58:04;;;;;;;14.43;2.63;;;;;;;13.02;73.62;101239.59;5030826;28;20033;-70
2022/11/01 09:00:29;;;;;;;18.35;2.95;;;;;;;13.03;73.53;101249.38;5022379;28;20034;-71
2022/11/01 09:02:55;;;;;;;12.15;2.65;;;;;;;13.06;73.51;101233.47;5012461;28;20030;-70
2022/11/01 09:05:21;;;;;;;12.15;2.83;;;;;;;13.08;73.13;101235.94;5026814;28;20075;-70
2022/11/01 09:07:47;;;;;;;17.63;2.78;;;;;;;13.09;73.09;101234.91;5031708;28;20452;-71
2022/11/01 09:10:15;;;;;;;18.10;3.25;;;;;;;13.13;73.36;101246.94;5027923;28;20040;-72
2022/11/01 09:12:43;;;;;;;13.25;2.45;;;;;;;13.19;75.59;101235.13;5025160;28;20029;-75
2022/11/01 09:15:09;;;;;;;12.98;2.85;;;;;;;13.24;72.84;101243.44;5032357;28;20037;-75
2022/11/01 09:17:34;;;;;;;18.27;3.55;;;;;;;13.23;73.97;101252.63;5032400;28;20107;-72
2022/11/01 09:20:00;;;;;;;11.85;2.50;;;;;;;13.26;73.12;101254.88;5030354;28;20032;-73
2022/11/01 09:22:25;;;;;;;15.65;2.70;;;;;;;13.28;72.72;101260.91;5016002;28;20362;-72
2022/11/01 09:24:51;;;;;;;12.35;2.83;;;;;;;13.28;73.96;101255.47;5020777;28;20033;-71
2022/11/01 09:27:16;;;;;;;23.02;3.00;;;;;;;13.33;72.60;101256.66;5031792;28;20530;-71
2022/11/01 09:29:41;;;;;;;17.60;3.35;;;;;;;13.34;73.26;101258.38;5029250;28;20050;-71
2022/11/01 09:32:07;;;;;;;15.73;2.90;;;;;;;13.33;73.23;101264.81;5032192;28;20025;-71
2022/11/01 09:34:33;;;;;;;13.50;2.60;;;;;;;13.36;72.54;101267.09;5032281;28;20503;-70
2022/11/01 09:36:58;;;;;;;17.20;2.47;;;;;;;13.36;72.94;101272.53;5031376;28;20025;-71
2022/11/01 09:39:23;;;;;;;14.30;2.95;;;;;;;13.37;73.37;101285.91;5032622;28;20105;-72
2022/11/01 09:41:53;;;;;;;14.88;3.08;;;;;;;13.38;73.21;101293.00;5032086;28;20079;-70
2022/11/01 09:44:24;;;;;;;18.58;2.85;;;;;;;13.41;73.18;101284.38;5029141;28;20465;-71
2022/11/01 09:46:57;;;;;;;17.37;2.83;;;;;;;13.46;73.17;101302.72;5030730;28;20125;-70
2022/11/01 09:49:27;;;;;;;22.52;4.40;;;;;;;13.47;73.89;101291.59;5022096;28;20053;-70
2022/11/01 09:51:53;;;;;;;11.60;2.63;;;;;;;13.54;73.34;101294.22;5033559;28;20033;-70
2022/11/01 09:54:21;;;;;;;18.00;3.28;;;;;;;13.57;72.65;101301.91;5036069;28;20041;-71
2022/11/01 09:57:05;;;;;;;23.48;3.28;;;;;;;13.54;72.02;101301.53;5035858;28;20025;-70
2022/11/01 09:59:51;;;;;;;21.92;3.78;;;;;;;13.58;73.48;101309.00;5026322;28;20030;-71
2022/11/01 10:02:45;;;;;;;21.33;2.70;;;;;;;13.64;73.17;101313.50;5027815;28;20029;-70
2022/11/01 10:05:29;;;;;;;20.80;3.08;;;;;;;13.68;73.36;101318.47;5035339;28;20479;-71
2022/11/01 10:08:03;;;;;;;17.45;3.28;;;;;;;13.68;71.56;101332.06;5034993;28;20456;-71
2022/11/01 10:10:37;;;;;;;14.50;2.95;;;;;;;13.68;72.37;101324.75;5034405;28;20032;-71
2022/11/01 10:13:15;;;;;;;21.23;3.20;;;;;;;13.73;72.86;101333.03;5033532;28;20022;-71
2022/11/01 10:15:53;;;;;;;22.05;3.15;;;;;;;13.76;73.27;101334.47;5035838;28;20029;-73
2022/11/01 10:18:30;;;;;;;16.95;2.78;;;;;;;13.81;73.24;101345.44;5031841;28;20033;-73
2022/11/01 10:21:04;;;;;;;20.75;3.33;;;;;;;13.82;72.39;101336.22;5035527;28;20029;-72
2022/11/01 10:23:41;;;;;;;14.52;2.92;;;;;;;13.78;72.93;101324.16;5034088;28;20025;-73
2022/11/01 10:26:13;;;;;;;12.38;2.67;;;;;;;13.78;72.43;101337.75;5035548;28;20033;-72
2022/11/01 10:28:49;;;;;;;14.05;3.10;;;;;;;13.82;72.61;101341.66;5046454;28;20069;-72
2022/11/01 10:31:17;;;;;;;16.48;2.40;;;;;;;13.84;71.78;101342.25;5035680;28;20017;-71
2022/11/01 10:33:52;;;;;;;12.20;2.45;;;;;;;13.94;73.95;101345.22;5035214;28;20037;-72
2022/11/01 10:36:27;;;;;;;13.48;2.45;;;;;;;14.00;71.69;101336.13;5034955;28;20029;-70
2022/11/01 10:39:05;;;;;;;15.32;3.17;;;;;;;13.96;71.41;101348.53;5032049;28;20079;-70
2022/11/01 10:41:40;;;;;;;17.58;3.22;;;;;;;14.05;71.64;101349.03;5032827;28;20109;-69
2022/11/01 10:44:14;;;;;;;14.43;3.15;;;;;;;14.04;71.15;101349.25;5034477;28;20040;-71
2022/11/01 10:46:45;;;;;;;17.55;3.28;;;;;;;14.11;71.96;101336.38;5033820;28;20025;-70
2022/11/01 10:49:33;;;;;;;15.63;2.97;;;;;;;14.15;71.03;101346.53;5028860;28;20028;-70
2022/11/01 10:52:04;;;;;;;23.33;3.20;;;;;;;14.17;70.94;101343.59;5028268;28;20022;-71
2022/11/01 10:54:33;;;;;;;19.83;3.43;;;;;;;14.25;70.79;101345.13;5034152;28;20029;-72
2022/11/01 10:57:01;;;;;;;17.90;3.03;;;;;;;14.29;70.89;101344.41;5025131;28;20324;-71
2022/11/01 10:59:38;;;;;;;16.17;2.78;;;;;;;14.33;69.76;101340.16;5014416;28;20024;-71
2022/11/01 11:02:13;;;;;;;25.25;3.60;;;;;;;14.39;70.35;101334.81;5022990;28;20453;-71
2022/11/01 11:04:39;;;;;;;17.38;3.40;;;;;;;14.43;69.93;101336.84;5034537;28;20025;-71
2022/11/01 11:07:12;;;;;;;12.23;2.83;;;;;;;14.50;70.09;101347.59;5033200;28;20488;-71
2022/11/01 11:09:37;;;;;;;12.57;2.95;;;;;;;14.51;69.48;101339.19;5034353;28;20520;-72
2022/11/01 11:12:09;;;;;;;15.27;3.17;;;;;;;14.56;69.90;101334.91;5032271;28;20112;-71
2022/11/01 11:14:35;;;;;;;17.23;2.92;;;;;;;14.59;69.98;101335.25;5034617;28;20029;-72
2022/11/01 11:17:02;;;;;;;11.05;2.75;;;;;;;14.62;68.46;101337.53;5031979;28;20033;-71
2022/11/01 11:19:37;;;;;;;8.30;2.67;;;;;;;14.66;69.26;101340.59;5034500;28;20365;-71
2022/11/01 11:22:06;;;;;;;13.45;2.42;;;;;;;14.73;68.94;101340.47;5028317;28;20024;-71
2022/11/01 11:24:37;;;;;;;8.52;2.38;;;;;;;14.77;68.53;101331.56;5029307;28;20375;-71
2022/11/01 11:27:11;;;;;;;11.90;2.80;;;;;;;14.81;69.07;101342.81;5025175;28;20033;-72
2022/11/01 11:29:44;;;;;;;12.85;2.72;;;;;;;14.84;68.10;101336.88;5033929;28;20056;-72
2022/11/01 11:32:16;;;;;;;10.48;2.45;;;;;;;14.90;68.78;101335.94;5033118;28;20103;-72
2022/11/01 11:34:42;;;;;;;11.52;2.90;;;;;;;14.91;68.83;101339.47;5034029;28;20180;-71